Time;durP1;ratioP1;P1;durP2;ratioP2;P2;SDS_P1;SDS_P2;PMS_P1;PMS_P2;Temp;Humidity;BMP_temperature;BMP_pressure;BME280_temperature;BME280_humidity;BME280_pressure;Samples;Min_cycle;Max_cycle;Signal;HPM_P1;HPM_P2
2023/08/03 00:09:47;;;;;;;1.98;1.23;;;19.70;99.90;;;;;;5004147;28;20050;-67
2023/08/03 00:12:33;;;;;;;2.63;1.15;;;19.60;99.90;;;;;;4985567;28;20109;-67
2023/08/03 00:15:19;;;;;;;2.15;1.27;;;19.60;99.90;;;;;;4986004;28;20066;-67
2023/08/03 00:18:05;;;;;;;2.90;1.38;;;19.60;99.90;;;;;;4978867;28;20058;-67
2023/08/03 00:20:50;;;;;;;1.90;1.10;;;19.60;99.90;;;;;;4983670;28;20046;-67
2023/08/03 00:23:36;;;;;;;4.93;1.20;;;19.60;99.90;;;;;;4988720;28;20081;-67
2023/08/03 00:26:22;;;;;;;1.65;1.00;;;19.60;99.90;;;;;;4990880;28;20050;-67
2023/08/03 00:29:08;;;;;;;1.88;1.20;;;19.60;99.90;;;;;;4987165;28;20042;-66
2023/08/03 00:31:54;;;;;;;1.30;1.00;;;19.50;99.90;;;;;;4974668;28;20046;-67
2023/08/03 00:34:40;;;;;;;2.33;1.30;;;19.50;99.90;;;;;;4980187;28;20057;-66
2023/08/03 00:37:26;;;;;;;2.15;1.35;;;19.50;99.90;;;;;;4976495;28;20030;-67
2023/08/03 00:40:12;;;;;;;3.15;1.08;;;19.40;99.90;;;;;;4978337;28;20042;-66
2023/08/03 00:42:58;;;;;;;1.50;1.05;;;19.40;99.90;;;;;;4988379;28;20034;-66
2023/08/03 00:45:44;;;;;;;2.40;1.40;;;19.40;99.90;;;;;;4990332;28;20047;-66
2023/08/03 00:48:30;;;;;;;3.42;1.13;;;19.40;99.90;;;;;;4984060;28;20034;-65
2023/08/03 00:51:16;;;;;;;1.70;1.17;;;19.30;99.90;;;;;;4983479;28;20050;-66
2023/08/03 00:54:02;;;;;;;1.95;1.45;;;19.30;99.90;;;;;;4988325;28;20034;-66
2023/08/03 00:56:48;;;;;;;2.20;1.40;;;19.30;99.90;;;;;;4988132;28;20042;-67
2023/08/03 00:59:34;;;;;;;2.13;1.13;;;19.30;99.90;;;;;;4985989;28;20054;-66
2023/08/03 01:02:20;;;;;;;2.35;1.15;;;19.20;99.90;;;;;;4985324;28;20034;-65
2023/08/03 01:05:06;;;;;;;2.05;1.23;;;19.20;99.90;;;;;;4986652;28;20038;-65
2023/08/03 01:07:52;;;;;;;3.05;1.38;;;19.20;99.90;;;;;;4985533;28;20455;-66
2023/08/03 01:10:38;;;;;;;4.10;2.03;;;19.20;99.90;;;;;;4995908;28;20045;-66
2023/08/03 01:13:24;;;;;;;1.50;1.13;;;19.20;99.90;;;;;;5002871;28;20026;-66
2023/08/03 01:16:10;;;;;;;1.92;1.02;;;19.20;99.90;;;;;;5007373;28;20049;-65
2023/08/03 01:18:57;;;;;;;2.63;1.60;;;19.20;99.90;;;;;;5007799;28;20058;-64
2023/08/03 01:21:45;;;;;;;2.45;1.38;;;19.20;99.90;;;;;;4992096;28;20550;-65
2023/08/03 01:24:31;;;;;;;2.10;1.33;;;19.20;99.90;;;;;;4996384;28;20403;-65
2023/08/03 01:27:16;;;;;;;2.33;1.27;;;19.10;99.90;;;;;;5006121;28;20081;-65
2023/08/03 01:30:03;;;;;;;2.45;1.38;;;19.10;99.90;;;;;;4991117;28;20069;-65
2023/08/03 01:32:50;;;;;;;2.85;1.77;;;19.10;99.90;;;;;;4997287;28;20042;-64
2023/08/03 01:35:35;;;;;;;2.97;1.58;;;19.10;99.90;;;;;;5005573;28;20042;-64
2023/08/03 01:38:21;;;;;;;3.90;1.50;;;19.10;99.90;;;;;;5008400;28;20050;-65
2023/08/03 01:41:07;;;;;;;1.98;1.25;;;19.10;99.90;;;;;;5007782;28;20498;-64
2023/08/03 01:44:19;;;;;;;3.53;1.40;;;19.10;99.90;;;;;;5007731;28;20042;-65
2023/08/03 01:47:05;;;;;;;2.80;1.50;;;19.10;99.90;;;;;;5010347;28;20042;-66
2023/08/03 01:49:51;;;;;;;2.83;1.48;;;19.10;99.90;;;;;;5007063;28;20450;-65
2023/08/03 01:52:37;;;;;;;2.58;1.45;;;19.00;99.90;;;;;;4990158;28;20034;-65
2023/08/03 01:55:23;;;;;;;2.83;1.38;;;19.00;99.90;;;;;;5002180;28;20117;-66
2023/08/03 01:58:11;;;;;;;2.15;1.45;;;19.00;99.90;;;;;;5009884;28;20057;-65
2023/08/03 02:00:57;;;;;;;2.08;1.30;;;19.00;99.90;;;;;;5004819;28;20038;-65
2023/08/03 02:03:43;;;;;;;2.28;1.58;;;19.00;99.90;;;;;;5008596;28;20060;-66
2023/08/03 02:06:29;;;;;;;2.17;1.35;;;19.00;99.90;;;;;;5005392;28;20048;-64
2023/08/03 02:09:15;;;;;;;4.75;1.90;;;18.90;99.90;;;;;;5004859;28;20046;-66
2023/08/03 02:12:01;;;;;;;2.80;1.70;;;18.90;99.90;;;;;;5008308;28;20469;-65
2023/08/03 02:14:47;;;;;;;3.92;1.83;;;18.90;99.90;;;;;;5007395;28;20054;-67
2023/08/03 02:17:33;;;;;;;2.13;1.40;;;18.90;99.90;;;;;;5012247;28;20048;-68
2023/08/03 02:20:19;;;;;;;2.00;1.30;;;18.90;99.90;;;;;;5009753;28;20057;-67
2023/08/03 02:23:05;;;;;;;4.65;1.83;;;18.90;99.90;;;;;;5012245;28;20046;-66
2023/08/03 02:25:51;;;;;;;4.35;1.67;;;18.90;99.90;;;;;;5010134;28;20499;-67
2023/08/03 02:28:37;;;;;;;2.38;1.50;;;18.90;99.90;;;;;;5009900;28;20053;-65
2023/08/03 02:31:23;;;;;;;3.83;1.42;;;18.90;99.90;;;;;;5003181;28;20570;-66
2023/08/03 02:34:09;;;;;;;5.88;1.50;;;18.90;99.90;;;;;;5000836;28;20078;-65
2023/08/03 02:36:55;;;;;;;5.50;1.70;;;18.90;99.90;;;;;;5008478;28;20069;-66
2023/08/03 02:39:41;;;;;;;2.53;1.65;;;18.90;99.90;;;;;;4999523;28;20069;-66
2023/08/03 02:42:27;;;;;;;4.60;1.90;;;18.90;99.90;;;;;;5010834;28;20052;-66
2023/08/03 02:45:13;;;;;;;2.58;1.38;;;18.90;99.90;;;;;;4997221;28;20091;-66
2023/08/03 02:47:59;;;;;;;6.22;1.90;;;18.90;99.90;;;;;;4978639;28;20518;-66
2023/08/03 02:50:45;;;;;;;3.05;1.92;;;18.90;99.90;;;;;;5005566;28;20060;-66
2023/08/03 02:53:31;;;;;;;2.88;1.52;;;18.90;99.90;;;;;;5011541;28;20049;-66
2023/08/03 02:56:17;;;;;;;3.08;1.83;;;18.90;99.90;;;;;;5011478;28;20046;-66
2023/08/03 02:59:03;;;;;;;4.70;1.75;;;18.90;99.90;;;;;;5010321;28;20046;-66
2023/08/03 03:01:49;;;;;;;3.30;2.08;;;18.90;99.90;;;;;;5011472;28;20092;-66
2023/08/03 03:04:35;;;;;;;2.50;1.40;;;18.90;99.90;;;;;;4993479;28;20038;-66
2023/08/03 03:07:20;;;;;;;2.28;1.65;;;18.90;99.90;;;;;;4992573;28;20070;-66
2023/08/03 03:10:07;;;;;;;3.90;1.80;;;18.90;99.90;;;;;;5000582;28;20091;-66
2023/08/03 03:12:53;;;;;;;3.75;2.25;;;18.90;99.90;;;;;;5010871;28;20444;-66
2023/08/03 03:15:39;;;;;;;14.73;2.22;;;18.90;99.90;;;;;;5007337;28;20050;-65
2023/08/03 03:18:25;;;;;;;3.83;1.77;;;18.90;99.90;;;;;;5010985;28;20115;-66
2023/08/03 03:21:11;;;;;;;3.15;1.70;;;18.90;99.90;;;;;;5007793;28;20121;-65
2023/08/03 03:23:57;;;;;;;3.53;1.80;;;18.90;99.90;;;;;;5007590;28;20092;-65
2023/08/03 03:26:43;;;;;;;2.53;1.65;;;18.80;99.90;;;;;;4992479;28;20078;-64
2023/08/03 03:29:29;;;;;;;3.05;1.85;;;18.80;99.90;;;;;;4999645;28;20121;-64
2023/08/03 03:32:15;;;;;;;3.15;2.03;;;18.80;99.90;;;;;;5007149;28;20042;-65
2023/08/03 03:35:01;;;;;;;4.47;2.40;;;18.80;99.90;;;;;;5007968;28;20120;-66
2023/08/03 03:37:47;;;;;;;3.08;2.13;;;18.80;99.90;;;;;;5000569;28;20042;-65
2023/08/03 03:40:33;;;;;;;3.20;1.50;;;18.70;99.90;;;;;;5003713;28;20077;-66
2023/08/03 03:43:19;;;;;;;3.25;1.92;;;18.70;99.90;;;;;;5005974;28;20113;-65
2023/08/03 03:46:04;;;;;;;4.22;1.85;;;18.80;99.90;;;;;;5008061;28;20041;-66
2023/08/03 03:48:50;;;;;;;4.35;2.35;;;18.80;99.90;;;;;;5007385;28;20038;-65
2023/08/03 03:51:36;;;;;;;3.22;1.88;;;18.80;99.90;;;;;;4990750;28;20042;-66
2023/08/03 03:54:22;;;;;;;3.72;1.50;;;18.80;99.90;;;;;;4994180;28;20073;-65
2023/08/03 03:57:08;;;;;;;2.70;1.45;;;18.80;99.90;;;;;;5009583;28;20553;-65
2023/08/03 03:59:54;;;;;;;3.65;1.67;;;18.80;99.90;;;;;;5007895;28;20053;-65
2023/08/03 04:02:40;;;;;;;3.30;1.80;;;18.80;99.90;;;;;;4991246;28;20082;-66
2023/08/03 04:05:26;;;;;;;4.05;1.90;;;18.80;99.90;;;;;;5002361;28;20050;-67
2023/08/03 04:08:12;;;;;;;2.60;1.60;;;18.90;99.90;;;;;;5008543;28;20486;-65
2023/08/03 04:10:58;;;;;;;3.80;1.90;;;18.80;99.90;;;;;;4965007;28;1150537;-66
2023/08/03 04:13:44;;;;;;;3.42;1.58;;;18.90;99.90;;;;;;4991111;28;20050;-67
2023/08/03 04:16:30;;;;;;;5.22;1.52;;;18.90;99.90;;;;;;5001433;28;20081;-67
2023/08/03 04:19:16;;;;;;;5.53;1.90;;;18.90;99.90;;;;;;5007678;28;20518;-66
2023/08/03 04:22:02;;;;;;;2.92;1.50;;;18.90;99.90;;;;;;5010507;28;20080;-66
2023/08/03 04:24:48;;;;;;;4.28;1.70;;;18.90;99.90;;;;;;5003506;28;20069;-66
2023/08/03 04:27:34;;;;;;;5.13;1.52;;;19.00;99.90;;;;;;5010041;28;20077;-66
2023/08/03 04:30:19;;;;;;;5.63;2.15;;;19.10;99.90;;;;;;5005801;28;20048;-66
2023/08/03 04:33:05;;;;;;;3.97;1.52;;;19.10;99.90;;;;;;5009620;28;20487;-66
2023/08/03 04:35:51;;;;;;;3.60;2.05;;;19.10;99.90;;;;;;4993837;28;20041;-66
2023/08/03 04:38:37;;;;;;;2.55;1.30;;;19.20;99.90;;;;;;5010557;28;20423;-65
2023/08/03 04:41:23;;;;;;;6.70;1.45;;;19.20;99.90;;;;;;4989891;28;20100;-66
2023/08/03 04:44:09;;;;;;;6.10;1.60;;;19.30;99.90;;;;;;4993591;28;20518;-67
2023/08/03 04:46:55;;;;;;;5.90;1.58;;;19.30;99.90;;;;;;5007437;28;20076;-70
2023/08/03 04:49:41;;;;;;;2.88;1.80;;;19.30;99.90;;;;;;5006111;28;20034;-67
2023/08/03 04:52:27;;;;;;;5.85;1.77;;;19.40;99.90;;;;;;4985975;28;20041;-66
2023/08/03 04:55:13;;;;;;;3.22;1.30;;;19.40;99.90;;;;;;5005125;28;20453;-66
2023/08/03 04:57:58;;;;;;;6.60;1.70;;;19.40;99.90;;;;;;5001301;28;20115;-67
2023/08/03 05:00:44;;;;;;;2.80;1.42;;;19.40;99.90;;;;;;5000020;28;20068;-67
2023/08/03 05:03:30;;;;;;;6.10;1.85;;;19.40;99.90;;;;;;4998429;28;20041;-65
2023/08/03 05:06:16;;;;;;;14.20;2.50;;;19.50;99.90;;;;;;5009741;28;20045;-66
2023/08/03 05:09:02;;;;;;;4.75;1.70;;;19.50;99.90;;;;;;5001518;28;20724;-67
2023/08/03 05:11:48;;;;;;;6.18;2.15;;;19.50;99.90;;;;;;5007073;28;20510;-67
2023/08/03 05:14:34;;;;;;;3.13;1.75;;;19.60;99.90;;;;;;4991207;28;20049;-68
2023/08/03 05:17:20;;;;;;;4.15;1.77;;;19.60;99.90;;;;;;5008760;28;20041;-67
2023/08/03 05:20:07;;;;;;;5.80;1.88;;;19.70;99.90;;;;;;4999450;28;20057;-67
2023/08/03 05:22:53;;;;;;;3.63;1.70;;;19.70;99.90;;;;;;5000059;28;20121;-67
2023/08/03 05:25:39;;;;;;;8.02;1.60;;;19.70;99.90;;;;;;5001665;28;20125;-68
2023/08/03 05:28:25;;;;;;;3.53;1.40;;;19.80;99.90;;;;;;5000373;28;20038;-73
2023/08/03 05:31:11;;;;;;;4.03;1.73;;;19.90;99.90;;;;;;5004417;28;20050;-68
2023/08/03 05:33:57;;;;;;;6.43;2.05;;;19.90;99.90;;;;;;4999913;28;20049;-67
2023/08/03 05:36:43;;;;;;;5.43;2.30;;;19.90;99.90;;;;;;5007949;28;20483;-67
2023/08/03 05:39:29;;;;;;;5.65;2.08;;;19.90;99.90;;;;;;4998317;28;20544;-67
2023/08/03 05:42:17;;;;;;;4.93;1.52;;;20.00;99.90;;;;;;5003375;28;20038;-67
2023/08/03 05:45:12;;;;;;;3.40;1.40;;;19.90;99.90;;;;;;4997801;28;20065;-67
2023/08/03 05:47:58;;;;;;;3.80;1.50;;;20.00;99.90;;;;;;5007971;28;20049;-64
2023/08/03 05:50:46;;;;;;;5.03;1.77;;;20.10;99.90;;;;;;5001234;28;20088;-64
2023/08/03 05:53:32;;;;;;;3.78;1.88;;;20.20;99.90;;;;;;5008750;28;20034;-64
2023/08/03 05:56:21;;;;;;;8.00;2.47;;;20.20;99.90;;;;;;5009449;28;20385;-65
2023/08/03 05:59:24;;;;;;;5.10;1.80;;;20.30;99.90;;;;;;5001792;28;20057;-65
2023/08/03 06:02:21;;;;;;;6.55;2.33;;;20.30;99.90;;;;;;4997994;28;20046;-64
2023/08/03 06:05:40;;;;;;;3.28;1.70;;;20.20;99.90;;;;;;5009453;28;20041;-65
2023/08/03 06:08:26;;;;;;;4.20;1.77;;;20.30;99.90;;;;;;5004590;28;20529;-64
2023/08/03 06:11:15;;;;;;;10.90;2.58;;;20.30;99.90;;;;;;5008711;28;20061;-65
2023/08/03 06:14:01;;;;;;;2.65;1.20;;;20.30;99.90;;;;;;5008894;28;20130;-65
2023/08/03 06:16:46;;;;;;;3.20;1.67;;;20.20;99.90;;;;;;5010777;28;20069;-65
2023/08/03 06:19:33;;;;;;;4.20;2.20;;;20.20;99.90;;;;;;4997551;28;20080;-64
2023/08/03 06:22:20;;;;;;;5.38;1.60;;;20.30;99.90;;;;;;5010098;28;20042;-65
2023/08/03 06:25:09;;;;;;;3.47;1.67;;;20.30;99.90;;;;;;5006583;28;20188;-66
2023/08/03 06:27:57;;;;;;;4.22;1.75;;;20.40;99.90;;;;;;5006823;28;20057;-66
2023/08/03 06:30:44;;;;;;;3.95;1.77;;;20.40;99.90;;;;;;5006619;28;20104;-64
2023/08/03 06:33:32;;;;;;;9.85;2.65;;;20.50;99.90;;;;;;5006988;28;20053;-66
2023/08/03 06:36:20;;;;;;;4.38;2.05;;;20.50;99.90;;;;;;5007631;28;20049;-66
2023/08/03 06:39:06;;;;;;;4.35;1.50;;;20.60;99.90;;;;;;5007740;28;20077;-63
2023/08/03 06:41:52;;;;;;;4.85;1.90;;;20.70;99.90;;;;;;5000759;28;20042;-65
2023/08/03 06:44:38;;;;;;;5.03;2.22;;;20.80;99.90;;;;;;5007389;28;20046;-63
2023/08/03 06:47:24;;;;;;;5.45;2.60;;;21.00;99.90;;;;;;5004593;28;20556;-65
2023/08/03 06:50:10;;;;;;;4.15;1.73;;;21.10;99.90;;;;;;5008487;28;20137;-72
2023/08/03 06:52:57;;;;;;;7.68;1.67;;;21.20;99.90;;;;;;5012786;28;20041;-73
2023/08/03 06:55:48;;;;;;;3.63;1.60;;;21.30;99.90;;;;;;5009722;28;20045;-71
2023/08/03 06:58:34;;;;;;;3.75;1.75;;;21.40;99.90;;;;;;4992893;28;20431;-69
2023/08/03 07:01:20;;;;;;;7.18;1.65;;;21.60;99.90;;;;;;4995617;28;20041;-70
2023/08/03 07:04:06;;;;;;;3.58;1.70;;;21.80;99.90;;;;;;5009805;28;20129;-68
2023/08/03 07:06:52;;;;;;;4.18;2.10;;;21.90;99.90;;;;;;5005514;28;20504;-69
2023/08/03 07:09:37;;;;;;;6.32;2.67;;;22.10;99.90;;;;;;5003686;28;20033;-72
2023/08/03 07:12:23;;;;;;;4.70;2.42;;;22.20;99.90;;;;;;4999995;28;20042;-68
2023/08/03 07:15:09;;;;;;;5.15;2.40;;;22.20;99.90;;;;;;5006663;28;20113;-70
2023/08/03 07:17:55;;;;;;;3.83;2.00;;;22.30;99.90;;;;;;5000664;28;20550;-72
2023/08/03 07:20:42;;;;;;;2.63;1.10;;;22.30;99.40;;;;;;5008217;28;21844;-72
2023/08/03 07:23:28;;;;;;;3.75;1.20;;;22.30;99.30;;;;;;5010108;28;20499;-71
2023/08/03 07:26:15;;;;;;;4.13;1.50;;;22.40;99.10;;;;;;5009222;28;20548;-72
2023/08/03 07:29:01;;;;;;;2.88;1.35;;;22.50;99.00;;;;;;5008134;28;20133;-70
2023/08/03 07:31:48;;;;;;;5.13;1.63;;;22.50;98.90;;;;;;5019424;28;20041;-70
2023/08/03 07:34:34;;;;;;;4.30;1.40;;;22.60;98.90;;;;;;4998905;28;20080;-70
2023/08/03 07:37:20;;;;;;;2.47;1.40;;;22.60;98.60;;;;;;5008443;28;20050;-72
2023/08/03 07:40:07;;;;;;;3.92;1.77;;;22.60;98.40;;;;;;5007966;28;20080;-72
2023/08/03 07:42:53;;;;;;;2.67;1.45;;;22.70;98.30;;;;;;4998597;28;20051;-72
2023/08/03 07:45:39;;;;;;;1.98;1.27;;;22.70;98.10;;;;;;5004866;28;20053;-72
2023/08/03 07:48:25;;;;;;;2.53;1.40;;;22.80;97.90;;;;;;4995887;28;20050;-73
2023/08/03 07:51:16;;;;;;;2.58;1.10;;;22.90;97.80;;;;;;4998396;28;20551;-73
2023/08/03 07:54:02;;;;;;;4.45;1.98;;;23.00;97.70;;;;;;4998224;28;20384;-72
2023/08/03 07:56:48;;;;;;;4.43;2.20;;;23.10;97.60;;;;;;5004489;28;20463;-74
2023/08/03 07:59:34;;;;;;;9.48;3.20;;;23.10;97.50;;;;;;4998547;28;20053;-72
2023/08/03 08:02:21;;;;;;;2.47;1.13;;;23.20;97.20;;;;;;5006140;28;20061;-72
2023/08/03 08:05:07;;;;;;;4.00;1.92;;;23.30;97.10;;;;;;5005434;28;20050;-73
2023/08/03 08:07:54;;;;;;;2.47;1.05;;;23.30;96.90;;;;;;5008351;28;20049;-71
2023/08/03 08:10:40;;;;;;;3.00;1.30;;;23.40;96.70;;;;;;4991898;28;20105;-71
2023/08/03 08:13:26;;;;;;;3.38;1.35;;;23.40;96.40;;;;;;4993178;28;20054;-72
2023/08/03 08:16:15;;;;;;;7.43;1.65;;;23.50;96.20;;;;;;5008574;28;20044;-72
2023/08/03 08:19:01;;;;;;;2.75;1.10;;;23.50;96.10;;;;;;5007626;28;21686;-72
2023/08/03 08:21:47;;;;;;;4.22;1.27;;;23.50;95.80;;;;;;5001460;28;20047;-72
2023/08/03 08:24:33;;;;;;;2.53;0.88;;;23.50;95.90;;;;;;4999848;28;20026;-73
2023/08/03 08:27:19;;;;;;;3.47;1.10;;;23.40;95.70;;;;;;4999528;28;20077;-72
2023/08/03 08:30:05;;;;;;;3.10;1.10;;;23.40;95.60;;;;;;5002440;28;20041;-73
2023/08/03 08:32:52;;;;;;;1.83;0.95;;;23.40;95.60;;;;;;5008690;28;20046;-72
2023/08/03 08:35:38;;;;;;;2.83;0.85;;;23.40;95.50;;;;;;5007636;28;20104;-73
2023/08/03 08:38:24;;;;;;;0.95;0.80;;;23.40;95.50;;;;;;4991330;28;20068;-71
2023/08/03 08:41:10;;;;;;;2.30;0.98;;;23.40;95.40;;;;;;5006758;28;20041;-71
2023/08/03 08:43:56;;;;;;;1.27;0.70;;;23.50;95.30;;;;;;5004823;28;20125;-72
2023/08/03 08:46:43;;;;;;;2.97;1.60;;;23.50;95.20;;;;;;5007383;28;20478;-73
2023/08/03 08:49:29;;;;;;;2.35;0.77;;;23.60;95.00;;;;;;5004064;28;20415;-73
2023/08/03 08:52:16;;;;;;;4.63;1.33;;;23.60;94.80;;;;;;5004348;28;20065;-74
2023/08/03 08:55:17;;;;;;;2.72;1.40;;;23.60;94.60;;;;;;5006096;28;20046;-72
2023/08/03 08:58:03;;;;;;;1.65;1.17;;;23.60;94.50;;;;;;5008032;28;20479;-71
2023/08/03 09:00:49;;;;;;;5.15;1.30;;;23.60;94.50;;;;;;5002164;28;20137;-73
2023/08/03 09:03:48;;;;;;;1.45;1.17;;;23.60;94.40;;;;;;5003451;28;20038;-73
2023/08/03 09:06:43;;;;;;;2.72;1.05;;;23.60;94.40;;;;;;5005597;28;20050;-74
2023/08/03 09:09:32;;;;;;;4.80;1.17;;;23.70;94.60;;;;;;4990231;28;20045;-73
2023/08/03 09:12:25;;;;;;;1.58;1.10;;;23.70;94.50;;;;;;5008392;28;20783;-73
2023/08/03 09:15:11;;;;;;;1.17;0.90;;;23.70;94.40;;;;;;5004251;28;20100;-73
2023/08/03 09:18:04;;;;;;;4.35;0.95;;;23.70;94.60;;;;;;5004647;28;20092;-78
2023/08/03 09:20:50;;;;;;;2.13;0.80;;;23.70;94.50;;;;;;4990804;28;20057;-78
2023/08/03 09:23:36;;;;;;;1.35;0.75;;;23.80;94.50;;;;;;4993513;28;20037;-78
2023/08/03 09:26:24;;;;;;;1.80;0.60;;;23.80;94.00;;;;;;5006915;28;20411;-72
2023/08/03 09:29:16;;;;;;;0.80;0.55;;;23.90;93.80;;;;;;5002631;28;20061;-71
2023/08/03 09:32:06;;;;;;;4.28;0.80;;;23.90;93.60;;;;;;5004689;28;20046;-71
2023/08/03 09:34:52;;;;;;;2.05;0.70;;;23.90;93.50;;;;;;4987759;28;20609;-73
2023/08/03 09:37:38;;;;;;;1.58;0.80;;;23.90;93.50;;;;;;5007150;28;20042;-73
2023/08/03 09:40:24;;;;;;;3.33;1.20;;;24.00;93.60;;;;;;5003237;28;20080;-73
2023/08/03 09:43:12;;;;;;;2.47;0.70;;;24.00;93.60;;;;;;4998629;28;20042;-73
2023/08/03 09:45:58;;;;;;;2.53;1.15;;;24.00;93.30;;;;;;5002995;28;20045;-73
2023/08/03 09:48:44;;;;;;;0.80;0.47;;;23.90;93.00;;;;;;4998566;28;20491;-72
2023/08/03 09:51:31;;;;;;;1.15;0.60;;;23.90;93.00;;;;;;4989534;28;20045;-72
2023/08/03 09:54:27;;;;;;;1.25;0.70;;;23.90;93.10;;;;;;4979633;28;20049;-73
2023/08/03 09:57:14;;;;;;;1.83;0.93;;;23.90;93.10;;;;;;5004182;28;20117;-73
2023/08/03 10:00:06;;;;;;;0.88;0.52;;;24.00;93.10;;;;;;4998911;28;20586;-69
2023/08/03 10:02:56;;;;;;;3.80;0.98;;;24.10;92.70;;;;;;5003432;28;20042;-65
2023/08/03 10:05:56;;;;;;;0.70;0.50;;;24.20;92.70;;;;;;5000660;28;20513;-65
2023/08/03 10:08:48;;;;;;;1.65;0.85;;;24.30;92.50;;;;;;4987259;28;22195;-66
2023/08/03 10:11:44;;;;;;;1.83;1.00;;;24.30;92.30;;;;;;5003690;28;20423;-66
2023/08/03 10:14:32;;;;;;;0.93;0.80;;;24.30;92.10;;;;;;5002095;28;20045;-67
2023/08/03 10:17:19;;;;;;;2.38;0.70;;;24.30;92.10;;;;;;5005872;28;20045;-66
2023/08/03 10:20:07;;;;;;;1.80;0.60;;;24.30;92.30;;;;;;5004423;28;20054;-67
2023/08/03 10:23:15;;;;;;;1.95;1.30;;;24.30;92.30;;;;;;5006657;28;20046;-66
2023/08/03 10:26:00;;;;;;;3.00;0.88;;;24.40;92.40;;;;;;5006116;23;20085;-76
2023/08/03 10:28:47;;;;;;;1.83;1.00;;;24.50;92.50;;;;;;5023221;28;20052;-77
2023/08/03 10:34:08;;;;;;;8.45;0.75;;;24.70;92.30;;;;;;5005258;23;20505;-76
2023/08/03 10:36:58;;;;;;;1.90;0.98;;;24.70;92.10;;;;;;5006844;23;20062;-72
2023/08/03 10:39:59;;;;;;;2.08;0.90;;;24.70;92.20;;;;;;5018575;22;20065;-70
2023/08/03 10:43:08;;;;;;;4.15;1.17;;;24.70;92.30;;;;;;5021821;28;20501;-71
2023/08/03 10:45:54;;;;;;;1.70;0.82;;;24.60;92.20;;;;;;5014345;28;20034;-75
2023/08/03 10:48:41;;;;;;;4.32;0.95;;;24.50;92.20;;;;;;5029008;28;20393;-74
2023/08/03 10:51:27;;;;;;;1.25;0.70;;;24.50;92.40;;;;;;5030849;28;20074;-74
2023/08/03 10:54:14;;;;;;;1.83;0.82;;;24.50;92.40;;;;;;5013351;28;20414;-75
2023/08/03 10:57:08;;;;;;;0.70;0.50;;;24.50;92.20;;;;;;5026195;28;20033;-77
2023/08/03 10:59:59;;;;;;;5.75;0.90;;;24.50;92.40;;;;;;5019544;28;20049;-76
2023/08/03 11:02:45;;;;;;;0.55;0.55;;;24.50;92.20;;;;;;5018088;28;20079;-74
2023/08/03 11:05:32;;;;;;;0.90;0.60;;;24.50;92.00;;;;;;5030225;28;20049;-76
2023/08/03 11:08:19;;;;;;;1.35;1.00;;;24.60;92.10;;;;;;5015772;28;20489;-73
2023/08/03 11:11:11;;;;;;;0.70;0.57;;;24.60;92.30;;;;;;5019590;28;20042;-74
2023/08/03 11:13:57;;;;;;;1.40;0.70;;;24.60;92.10;;;;;;5030627;28;20060;-76
2023/08/03 11:16:44;;;;;;;2.33;0.85;;;24.50;91.90;;;;;;5025235;28;20141;-70
2023/08/03 11:19:33;;;;;;;0.60;0.60;;;24.50;92.00;;;;;;5022554;28;20062;-70
2023/08/03 11:22:23;;;;;;;1.77;1.10;;;24.60;91.90;;;;;;5021841;28;20117;-71
2023/08/03 11:25:09;;;;;;;4.07;1.67;;;24.60;91.80;;;;;;5027589;28;20104;-71
2023/08/03 11:27:55;;;;;;;2.38;1.10;;;24.60;91.70;;;;;;5020039;28;20052;-70
2023/08/03 11:30:45;;;;;;;3.33;1.33;;;24.50;92.10;;;;;;5017758;28;20056;-71
2023/08/03 11:33:34;;;;;;;2.70;0.73;;;24.30;92.90;;;;;;5018297;28;20049;-68
2023/08/03 11:36:23;;;;;;;2.72;1.02;;;24.20;93.40;;;;;;5021050;28;20123;-69
2023/08/03 11:39:08;;;;;;;6.43;1.33;;;24.10;93.90;;;;;;5032445;23;20092;-76
2023/08/03 11:41:55;;;;;;;1.77;0.77;;;24.00;94.20;;;;;;5021970;22;20073;-70
2023/08/03 11:47:17;;;;;;;2.20;1.40;;;23.80;94.70;;;;;;3232678;22;20115;-74
2023/08/03 11:50:03;;;;;;;1.27;0.80;;;23.70;94.90;;;;;;5020864;23;20717;-70
2023/08/03 11:55:30;;;;;;;2.97;1.48;;;23.80;94.60;;;;;;4809713;23;20053;-71
2023/08/03 12:06:11;;;;;;;2.63;0.90;;;24.00;94.00;;;;;;2099211;22;20129;-70
2023/08/03 12:08:57;;;;;;;1.75;0.88;;;24.10;93.90;;;;;;5008887;23;20077;-69
2023/08/03 12:11:37;;;;;;;1.45;0.80;;;24.10;93.80;;;;;;5020617;28;20642;-71
2023/08/03 12:14:23;;;;;;;0.30;0.30;;;24.10;93.50;;;;;;4985252;23;20534;-82
2023/08/03 12:16:58;;;;;;;2.35;1.05;;;24.20;93.20;;;;;;5008082;23;20057;-81
2023/08/03 12:19:33;;;;;;;2.17;1.30;;;24.20;92.90;;;;;;4987827;23;20081;-72
2023/08/03 12:22:19;;;;;;;1.65;0.80;;;24.20;92.70;;;;;;4986277;23;20062;-70
2023/08/03 12:25:05;;;;;;;2.05;1.23;;;24.30;92.70;;;;;;4955028;28;21079;-69
2023/08/03 12:27:51;;;;;;;3.40;1.17;;;24.20;92.20;;;;;;4962309;28;20046;-70
2023/08/03 12:33:14;;;;;;;;;;;24.00;92.60;;;;;;5009406;23;20053;-77
2023/08/03 12:41:10;;;;;;;0.73;0.70;;;23.70;93.90;;;;;;4386248;23;20117;-71
2023/08/03 12:43:56;;;;;;;2.20;0.95;;;23.70;94.40;;;;;;5020584;22;20045;-71
2023/08/03 12:46:42;;;;;;;1.95;1.10;;;23.80;94.70;;;;;;5015362;23;20068;-77
2023/08/03 12:49:28;;;;;;;3.90;1.20;;;23.80;94.50;;;;;;5017954;23;20038;-82
2023/08/03 12:52:14;;;;;;;1.10;0.93;;;23.80;94.10;;;;;;5014561;23;20054;-76
2023/08/03 12:55:00;;;;;;;1.58;1.00;;;23.90;93.70;;;;;;5028025;23;20415;-72
2023/08/03 12:57:46;;;;;;;1.77;1.00;;;23.80;93.40;;;;;;5014832;23;20057;-70
2023/08/03 13:00:32;;;;;;;0.50;0.50;;;23.70;93.10;;;;;;5008073;28;20053;-68
2023/08/03 13:06:00;;;;;;;1.25;0.60;;;23.50;93.10;;;;;;5234682;23;20057;-69
2023/08/03 13:08:46;;;;;;;3.05;1.05;;;23.50;93.10;;;;;;5004513;28;20064;-70
2023/08/03 13:11:32;;;;;;;1.00;0.63;;;23.50;93.00;;;;;;5006317;28;20552;-72
2023/08/03 13:14:18;;;;;;;2.70;1.42;;;23.50;93.00;;;;;;4995306;28;20044;-71
2023/08/03 13:17:04;;;;;;;4.60;2.15;;;23.60;93.00;;;;;;5007141;28;20049;-71
2023/08/03 13:19:50;;;;;;;4.55;2.00;;;23.70;93.30;;;;;;5006345;28;20136;-69
2023/08/03 13:22:37;;;;;;;3.10;1.80;;;23.80;93.30;;;;;;5007913;28;20041;-70
2023/08/03 13:25:23;;;;;;;3.75;1.83;;;24.00;93.40;;;;;;4987142;28;20042;-71
2023/08/03 13:28:09;;;;;;;1.95;1.40;;;24.10;93.20;;;;;;4990056;28;20038;-70
2023/08/03 13:30:57;;;;;;;3.92;1.58;;;24.20;93.20;;;;;;5000720;28;20080;-70
2023/08/03 13:33:43;;;;;;;2.55;1.23;;;24.20;92.80;;;;;;5008665;28;20045;-70
2023/08/03 13:36:29;;;;;;;1.15;0.90;;;24.20;92.40;;;;;;5004806;28;20070;-69
2023/08/03 13:39:15;;;;;;;3.22;1.10;;;24.20;92.30;;;;;;5010102;28;20042;-75
2023/08/03 13:42:01;;;;;;;1.90;0.70;;;24.10;92.40;;;;;;5006740;28;20038;-74
2023/08/03 13:44:47;;;;;;;1.55;1.00;;;24.00;92.20;;;;;;5002702;28;20053;-74
2023/08/03 13:47:33;;;;;;;5.90;1.30;;;24.00;92.10;;;;;;5012558;28;20084;-73
2023/08/03 13:50:19;;;;;;;2.72;1.10;;;23.90;92.20;;;;;;5004396;28;20053;-74
2023/08/03 13:53:05;;;;;;;3.90;1.55;;;23.90;92.30;;;;;;5003851;28;20459;-73
2023/08/03 13:55:51;;;;;;;2.90;1.05;;;23.90;92.30;;;;;;4994975;28;20042;-73
2023/08/03 13:58:37;;;;;;;1.30;0.88;;;23.80;92.20;;;;;;5004020;28;22125;-75
2023/08/03 14:01:23;;;;;;;2.20;1.08;;;23.80;92.20;;;;;;5003613;28;20117;-73
2023/08/03 14:04:09;;;;;;;1.40;0.95;;;23.80;92.20;;;;;;5005264;28;20046;-72
2023/08/03 14:06:55;;;;;;;1.60;0.98;;;23.70;92.20;;;;;;4982269;28;20039;-73
2023/08/03 14:09:41;;;;;;;3.20;1.00;;;23.70;92.30;;;;;;4977242;28;20046;-73
2023/08/03 14:12:28;;;;;;;3.65;0.82;;;23.60;92.50;;;;;;4981285;28;20046;-73
2023/08/03 14:15:14;;;;;;;1.10;1.00;;;23.60;92.40;;;;;;4981091;28;20098;-74
2023/08/03 14:18:00;;;;;;;2.63;1.50;;;23.60;92.50;;;;;;4992987;28;20034;-73
2023/08/03 14:20:46;;;;;;;1.58;1.40;;;23.60;92.60;;;;;;4979859;28;20049;-73
2023/08/03 14:23:32;;;;;;;2.00;1.05;;;23.60;92.70;;;;;;4990633;28;20038;-73
2023/08/03 14:26:18;;;;;;;1.00;0.80;;;23.60;92.40;;;;;;4981291;28;20844;-74
2023/08/03 14:29:04;;;;;;;2.25;1.40;;;23.50;92.40;;;;;;4991323;28;20042;-74
2023/08/03 14:31:50;;;;;;;2.03;0.90;;;23.50;92.40;;;;;;4981070;28;20398;-75
2023/08/03 14:34:36;;;;;;;2.63;1.15;;;23.50;92.40;;;;;;4990985;28;20444;-74
2023/08/03 14:37:22;;;;;;;4.15;1.50;;;23.40;92.40;;;;;;4977165;28;20122;-79
2023/08/03 14:40:08;;;;;;;1.60;1.10;;;23.40;93.10;;;;;;4992685;28;20050;-82
2023/08/03 14:42:54;;;;;;;1.85;0.95;;;23.30;93.70;;;;;;4990111;28;20040;-79
2023/08/03 14:45:40;;;;;;;2.95;1.17;;;23.10;94.50;;;;;;4977206;28;20049;-79
2023/08/03 14:48:26;;;;;;;2.00;1.38;;;23.00;95.10;;;;;;4990515;28;20039;-77
2023/08/03 14:51:12;;;;;;;2.20;1.05;;;22.90;95.70;;;;;;4986112;28;20050;-75
2023/08/03 14:53:58;;;;;;;0.90;0.80;;;22.60;96.00;;;;;;4987450;28;20042;-77
2023/08/03 14:56:44;;;;;;;1.65;0.90;;;22.50;96.40;;;;;;4988043;28;20085;-76
2023/08/03 14:59:30;;;;;;;1.70;0.98;;;22.40;96.80;;;;;;4980698;28;20050;-76
2023/08/03 15:02:16;;;;;;;2.97;1.20;;;22.40;97.20;;;;;;4991290;28;20096;-76
2023/08/03 15:05:02;;;;;;;1.30;1.15;;;22.50;97.70;;;;;;4985022;28;20590;-76